createdAt,value
2022-11-07T00:00:32.904Z,0.00
2022-11-07T00:01:32.931Z,0.00
2022-11-07T00:02:33.088Z,0.00
2022-11-07T00:03:32.901Z,0.00
2022-11-07T00:04:33.075Z,0.00
2022-11-07T00:05:32.903Z,0.00
2022-11-07T00:06:32.879Z,0.00
2022-11-07T00:07:32.879Z,0.00
2022-11-07T00:08:32.877Z,0.00
2022-11-07T00:09:32.919Z,0.00
2022-11-07T00:10:32.890Z,0.00
2022-11-07T00:11:32.878Z,0.00
2022-11-07T00:12:32.909Z,0.00
2022-11-07T00:13:32.912Z,0.00
2022-11-07T00:14:32.857Z,0.00
2022-11-07T00:15:32.961Z,0.00
2022-11-07T00:16:32.828Z,0.00
2022-11-07T00:17:32.815Z,0.00
2022-11-07T00:18:32.850Z,0.00
2022-11-07T00:19:32.819Z,0.00
2022-11-07T00:20:33.824Z,0.00
2022-11-07T00:21:32.838Z,0.00
2022-11-07T00:22:32.819Z,0.00
2022-11-07T00:23:32.808Z,0.00
2022-11-07T00:24:32.777Z,0.00
2022-11-07T00:25:32.817Z,0.00
2022-11-07T00:26:32.874Z,0.00
2022-11-07T00:27:32.878Z,0.00
2022-11-07T00:28:32.775Z,0.00
2022-11-07T00:29:32.806Z,0.00
2022-11-07T00:30:32.745Z,0.00
2022-11-07T00:31:32.774Z,0.00
2022-11-07T00:32:32.739Z,0.00
2022-11-07T00:33:32.732Z,0.00
2022-11-07T00:34:32.743Z,0.00
2022-11-07T00:35:32.854Z,0.00
2022-11-07T00:36:32.722Z,0.00
2022-11-07T00:37:32.836Z,0.00
2022-11-07T00:38:32.862Z,0.00
2022-11-07T00:39:32.718Z,0.00
2022-11-07T00:40:32.700Z,0.00
2022-11-07T00:41:32.699Z,0.00
2022-11-07T00:42:32.728Z,0.00
2022-11-07T00:43:32.749Z,0.00
2022-11-07T00:44:32.666Z,0.00
2022-11-07T00:45:32.660Z,0.00
2022-11-07T00:46:32.753Z,0.00
2022-11-07T00:47:32.648Z,0.00
2022-11-07T00:48:32.678Z,0.00
2022-11-07T00:49:32.633Z,0.00
2022-11-07T00:50:32.623Z,0.00
2022-11-07T00:51:32.769Z,0.00
2022-11-07T00:52:32.675Z,0.00
2022-11-07T00:53:32.724Z,0.00
2022-11-07T00:54:32.614Z,0.00
2022-11-07T00:55:32.611Z,0.00
2022-11-07T00:56:32.599Z,0.00
2022-11-07T00:57:32.589Z,0.00
2022-11-07T00:58:32.573Z,0.00
2022-11-07T00:59:32.740Z,0.00
2022-11-07T01:00:32.563Z,0.00
2022-11-07T01:01:32.829Z,0.00
2022-11-07T01:02:32.706Z,0.00
2022-11-07T01:03:32.562Z,0.00
2022-11-07T01:04:32.555Z,0.00
2022-11-07T01:05:32.526Z,0.00
2022-11-07T01:06:32.524Z,0.00
2022-11-07T01:07:33.046Z,0.00
2022-11-07T01:08:32.519Z,0.00
2022-11-07T01:09:32.500Z,0.00
2022-11-07T01:10:32.522Z,0.00
2022-11-07T01:11:32.470Z,0.00
2022-11-07T01:12:32.530Z,0.00
2022-11-07T01:13:32.537Z,0.00
2022-11-07T01:14:32.486Z,0.00
2022-11-07T01:15:32.624Z,0.00
2022-11-07T01:16:32.512Z,0.00
2022-11-07T01:17:32.501Z,0.00
2022-11-07T01:18:32.453Z,0.00
2022-11-07T01:19:32.496Z,0.00
2022-11-07T01:20:32.486Z,0.00
2022-11-07T01:21:32.452Z,0.00
2022-11-07T01:22:32.426Z,0.00
2022-11-07T01:23:32.397Z,0.00
2022-11-07T01:24:32.420Z,0.00
2022-11-07T01:25:32.406Z,0.00
2022-11-07T01:26:32.411Z,0.00
2022-11-07T01:27:32.388Z,0.00
2022-11-07T01:28:32.386Z,0.00
2022-11-07T01:29:32.396Z,0.00
2022-11-07T01:30:32.370Z,0.00
2022-11-07T01:31:32.420Z,0.00
2022-11-07T01:32:32.387Z,0.00
2022-11-07T01:33:32.364Z,0.00
2022-11-07T01:34:32.336Z,0.00
2022-11-07T01:35:32.347Z,0.00
2022-11-07T01:36:32.353Z,0.00
2022-11-07T01:37:33.045Z,0.00
2022-11-07T01:38:32.317Z,0.00
2022-11-07T01:39:32.391Z,0.00
2022-11-07T01:40:32.320Z,0.00
2022-11-07T01:41:32.312Z,0.00
2022-11-07T01:42:32.297Z,0.00
2022-11-07T01:43:32.731Z,0.00
2022-11-07T01:44:32.303Z,0.00
2022-11-07T01:45:32.300Z,0.00
2022-11-07T01:46:32.263Z,0.00
2022-11-07T01:47:32.256Z,0.00
2022-11-07T01:48:32.366Z,0.00
2022-11-07T01:49:32.287Z,0.00
2022-11-07T01:50:32.284Z,0.00
2022-11-07T01:51:32.259Z,0.00
2022-11-07T01:52:32.251Z,0.00
2022-11-07T01:53:32.225Z,0.00
2022-11-07T01:54:32.561Z,0.00
2022-11-07T01:55:32.499Z,0.00
2022-11-07T01:56:33.104Z,0.00
2022-11-07T01:57:32.205Z,0.00
2022-11-07T01:58:32.196Z,0.00
2022-11-07T01:59:32.315Z,0.00
2022-11-07T02:00:32.196Z,0.00
2022-11-07T02:01:32.307Z,0.00
2022-11-07T02:02:32.332Z,0.00
2022-11-07T02:03:33.056Z,0.00
2022-11-07T02:04:32.179Z,0.00
2022-11-07T02:05:32.176Z,0.00
2022-11-07T02:06:32.142Z,0.00
2022-11-07T02:07:32.153Z,0.00
2022-11-07T02:08:32.146Z,0.00
2022-11-07T02:09:32.533Z,0.00
2022-11-07T02:10:32.132Z,0.00
2022-11-07T02:11:38.928Z,0.00
2022-11-07T02:12:32.113Z,0.00
2022-11-07T02:13:32.093Z,0.00
2022-11-07T02:14:32.151Z,0.00
2022-11-07T02:15:32.123Z,0.00
2022-11-07T02:16:33.111Z,0.00
2022-11-07T02:17:32.071Z,0.00
2022-11-07T02:18:32.066Z,0.00
2022-11-07T02:19:32.065Z,0.00
2022-11-07T02:20:32.069Z,0.00
2022-11-07T02:21:32.095Z,0.00
2022-11-07T02:22:32.061Z,0.00
2022-11-07T02:23:32.045Z,0.00
2022-11-07T02:24:32.048Z,0.00
2022-11-07T02:25:32.049Z,0.00
2022-11-07T02:26:32.035Z,0.00
2022-11-07T02:27:32.055Z,0.00
2022-11-07T02:28:32.022Z,0.00
2022-11-07T02:29:32.017Z,0.00
2022-11-07T02:30:32.062Z,0.00
2022-11-07T02:31:31.999Z,0.00
2022-11-07T02:32:32.030Z,0.00
2022-11-07T02:33:31.993Z,0.00
2022-11-07T02:34:31.985Z,0.00
2022-11-07T02:35:31.984Z,0.00
2022-11-07T02:36:31.977Z,0.00
2022-11-07T02:37:31.961Z,0.00
2022-11-07T02:38:31.983Z,0.00
2022-11-07T02:39:31.944Z,0.00
2022-11-07T02:40:31.934Z,0.00
2022-11-07T02:41:31.932Z,0.00
2022-11-07T02:42:31.922Z,0.00
2022-11-07T02:43:31.998Z,0.00
2022-11-07T02:44:32.915Z,0.00
2022-11-07T02:45:31.920Z,0.00
2022-11-07T02:46:31.972Z,0.00
2022-11-07T02:47:31.923Z,0.00
2022-11-07T02:48:31.899Z,0.00
2022-11-07T02:49:32.001Z,0.00
2022-11-07T02:50:31.889Z,0.00
2022-11-07T02:51:31.901Z,0.00
2022-11-07T02:52:31.873Z,0.00
2022-11-07T02:53:31.885Z,0.00
2022-11-07T02:54:31.965Z,0.00
2022-11-07T02:55:31.853Z,0.00
2022-11-07T02:56:31.844Z,0.00
2022-11-07T02:57:31.850Z,0.00
2022-11-07T02:58:31.856Z,0.00
2022-11-07T02:59:31.838Z,0.00
2022-11-07T03:00:31.850Z,0.00
2022-11-07T03:01:31.892Z,0.00
2022-11-07T03:02:32.034Z,0.00
2022-11-07T03:03:31.793Z,0.00
2022-11-07T03:04:31.789Z,0.00
2022-11-07T03:05:31.825Z,0.00
2022-11-07T03:06:31.785Z,0.00
2022-11-07T03:07:31.792Z,0.00
2022-11-07T03:08:31.763Z,0.00
2022-11-07T03:09:31.782Z,0.00
2022-11-07T03:10:31.777Z,0.00
2022-11-07T03:11:31.774Z,0.00
2022-11-07T03:12:31.741Z,0.00
2022-11-07T03:13:31.747Z,0.00
2022-11-07T03:14:31.756Z,0.00
2022-11-07T03:15:31.728Z,0.00
2022-11-07T03:16:31.740Z,0.00
2022-11-07T03:17:31.707Z,0.00
2022-11-07T03:18:31.714Z,0.00
2022-11-07T03:19:31.711Z,0.00
2022-11-07T03:20:31.724Z,0.00
2022-11-07T03:21:31.691Z,0.00
2022-11-07T03:22:31.715Z,0.00
2022-11-07T03:23:31.677Z,0.00
2022-11-07T03:24:31.664Z,0.00
2022-11-07T03:25:31.671Z,0.00
2022-11-07T03:26:31.649Z,0.00
2022-11-07T03:27:31.760Z,0.00
2022-11-07T03:28:31.642Z,0.00
2022-11-07T03:29:31.637Z,0.00
2022-11-07T03:30:32.483Z,0.00
2022-11-07T03:31:31.650Z,0.00
2022-11-07T03:32:31.617Z,0.00
2022-11-07T03:33:31.660Z,0.00
2022-11-07T03:34:31.622Z,0.00
2022-11-07T03:35:31.605Z,0.00
2022-11-07T03:36:31.607Z,0.00
2022-11-07T03:37:31.582Z,0.00
2022-11-07T03:38:31.620Z,0.00
2022-11-07T03:39:31.569Z,0.00
2022-11-07T03:40:31.564Z,0.00
2022-11-07T03:41:31.585Z,0.00
2022-11-07T03:42:31.583Z,0.00
2022-11-07T03:43:31.570Z,0.00
2022-11-07T03:44:31.598Z,0.00
2022-11-07T03:45:32.544Z,0.00
2022-11-07T03:46:31.532Z,0.00
2022-11-07T03:47:31.562Z,0.00
2022-11-07T03:48:31.519Z,0.00
2022-11-07T03:49:31.590Z,0.00
2022-11-07T03:50:31.520Z,0.00
2022-11-07T03:51:31.506Z,0.00
2022-11-07T03:52:31.512Z,0.00
2022-11-07T03:53:31.503Z,0.00
2022-11-07T03:54:31.497Z,0.00
2022-11-07T03:55:31.521Z,0.00
2022-11-07T03:56:31.498Z,0.00
2022-11-07T03:57:31.480Z,0.00
2022-11-07T03:58:31.481Z,0.00
2022-11-07T03:59:31.471Z,0.00
2022-11-07T04:00:31.494Z,0.00
2022-11-07T04:01:31.554Z,0.00
2022-11-07T04:02:31.596Z,0.00
2022-11-07T04:03:31.444Z,0.00
2022-11-07T04:04:32.452Z,0.00
2022-11-07T04:05:31.422Z,0.00
2022-11-07T04:06:31.457Z,0.00
2022-11-07T04:07:31.411Z,0.00
2022-11-07T04:08:31.420Z,0.00
2022-11-07T04:09:31.405Z,0.00
2022-11-07T04:10:31.414Z,0.00
2022-11-07T04:11:31.547Z,0.00
2022-11-07T04:12:31.396Z,0.00
2022-11-07T04:13:31.377Z,0.00
2022-11-07T04:14:32.381Z,0.00
2022-11-07T04:15:31.381Z,0.00
2022-11-07T04:16:31.368Z,0.00
2022-11-07T04:17:31.394Z,0.00
2022-11-07T04:18:32.140Z,0.00
2022-11-07T04:19:31.346Z,0.00
2022-11-07T04:20:31.363Z,0.00
2022-11-07T04:21:31.324Z,0.00
2022-11-07T04:22:31.377Z,0.00
2022-11-07T04:23:32.077Z,0.00
2022-11-07T04:24:31.315Z,0.00
2022-11-07T04:25:31.318Z,0.00
2022-11-07T04:26:31.313Z,0.00
2022-11-07T04:27:31.303Z,0.00
2022-11-07T04:28:31.389Z,0.00
2022-11-07T04:29:31.326Z,0.00
2022-11-07T04:30:31.289Z,0.00
2022-11-07T04:31:31.283Z,0.00
2022-11-07T04:32:31.273Z,0.00
2022-11-07T04:33:31.316Z,0.00
2022-11-07T04:34:31.256Z,0.00
2022-11-07T04:35:31.238Z,0.00
2022-11-07T04:36:31.243Z,0.00
2022-11-07T04:37:31.230Z,0.00
2022-11-07T04:38:31.224Z,0.00
2022-11-07T04:39:31.246Z,0.00
2022-11-07T04:40:31.232Z,0.00
2022-11-07T04:41:31.212Z,0.00
2022-11-07T04:42:31.208Z,0.00
2022-11-07T04:43:31.188Z,0.00
2022-11-07T04:44:31.245Z,0.00
2022-11-07T04:45:31.188Z,0.00
2022-11-07T04:46:31.189Z,0.00
2022-11-07T04:47:31.173Z,0.00
2022-11-07T04:48:31.166Z,0.00
2022-11-07T04:49:31.164Z,0.00
2022-11-07T04:50:31.200Z,0.00
2022-11-07T04:51:31.154Z,0.00
2022-11-07T04:52:31.198Z,0.00
2022-11-07T04:53:31.137Z,0.00
2022-11-07T04:54:31.148Z,0.00
2022-11-07T04:55:31.242Z,0.00
2022-11-07T04:56:34.442Z,0.00
2022-11-07T04:57:32.119Z,0.00
2022-11-07T04:58:31.115Z,0.00
2022-11-07T04:59:31.106Z,0.00
2022-11-07T05:00:31.103Z,0.00
2022-11-07T05:01:31.167Z,0.00
2022-11-07T05:02:31.153Z,0.00
2022-11-07T05:03:31.076Z,0.00
2022-11-07T05:04:31.073Z,0.00
2022-11-07T05:05:31.066Z,0.00
2022-11-07T05:06:31.099Z,0.00
2022-11-07T05:07:31.061Z,0.00
2022-11-07T05:08:31.040Z,0.00
2022-11-07T05:09:31.029Z,0.00
2022-11-07T05:10:31.038Z,0.00
2022-11-07T05:11:31.039Z,0.00
2022-11-07T05:12:31.112Z,0.00
2022-11-07T05:13:30.997Z,0.00
2022-11-07T05:14:31.031Z,0.00
2022-11-07T05:15:31.019Z,0.00
2022-11-07T05:16:31.013Z,0.00
2022-11-07T05:17:31.007Z,0.00
2022-11-07T05:18:30.980Z,0.00
2022-11-07T05:19:30.996Z,0.00
2022-11-07T05:20:30.992Z,0.00
2022-11-07T05:21:30.979Z,0.00
2022-11-07T05:22:30.976Z,0.00
2022-11-07T05:23:31.081Z,0.00
2022-11-07T05:24:30.947Z,0.00
2022-11-07T05:25:30.936Z,0.00
2022-11-07T05:26:30.975Z,0.00
2022-11-07T05:27:30.963Z,0.00
2022-11-07T05:28:38.309Z,0.00
2022-11-07T05:29:32.915Z,0.00
2022-11-07T05:30:30.907Z,0.00
2022-11-07T05:31:30.888Z,0.00
2022-11-07T05:32:30.925Z,0.00
2022-11-07T05:33:30.893Z,0.00
2022-11-07T05:34:30.995Z,0.00
2022-11-07T05:35:30.880Z,0.00
2022-11-07T05:36:30.879Z,0.00
2022-11-07T05:37:30.856Z,0.00
2022-11-07T05:38:30.856Z,0.00
2022-11-07T05:39:30.902Z,0.00
2022-11-07T05:40:30.871Z,0.00
2022-11-07T05:41:30.860Z,0.00
2022-11-07T05:42:30.848Z,0.00
2022-11-07T05:43:30.832Z,0.00
2022-11-07T05:44:30.824Z,0.00
2022-11-07T05:45:30.854Z,0.00
2022-11-07T05:46:30.808Z,0.00
2022-11-07T05:47:30.815Z,0.00
2022-11-07T05:48:31.093Z,0.00
2022-11-07T05:49:30.846Z,0.00
2022-11-07T05:50:31.024Z,0.00
2022-11-07T05:51:30.817Z,4.00
2022-11-07T05:52:30.816Z,4.00
2022-11-07T05:53:30.841Z,4.00
2022-11-07T05:54:30.766Z,0.00
2022-11-07T05:55:30.777Z,4.00
2022-11-07T05:56:30.779Z,4.00
2022-11-07T05:57:30.770Z,8.00
2022-11-07T05:58:30.889Z,8.00
2022-11-07T05:59:30.737Z,8.00
2022-11-07T06:00:30.744Z,8.00
2022-11-07T06:01:30.864Z,8.00
2022-11-07T06:02:30.797Z,12.00
2022-11-07T06:03:30.708Z,12.00
2022-11-07T06:04:30.716Z,16.00
2022-11-07T06:05:30.706Z,20.00
2022-11-07T06:06:30.697Z,24.00
2022-11-07T06:07:30.799Z,28.00
2022-11-07T06:08:30.822Z,28.00
2022-11-07T06:09:30.687Z,32.00
2022-11-07T06:10:30.648Z,36.00
2022-11-07T06:11:30.711Z,40.00
2022-11-07T06:12:30.682Z,48.00
2022-11-07T06:13:30.672Z,56.00
2022-11-07T06:14:30.649Z,72.00
2022-11-07T06:15:30.644Z,84.00
2022-11-07T06:16:30.630Z,92.00
2022-11-07T06:17:30.653Z,104.00
2022-11-07T06:18:30.742Z,124.00
2022-11-07T06:19:30.635Z,140.00
2022-11-07T06:20:30.607Z,148.00
2022-11-07T06:21:30.614Z,140.00
2022-11-07T06:22:30.594Z,160.00
2022-11-07T06:23:30.708Z,188.00
2022-11-07T06:24:30.582Z,200.00
2022-11-07T06:25:30.584Z,196.00
2022-11-07T06:26:30.575Z,188.00
2022-11-07T06:27:30.564Z,192.00
2022-11-07T06:28:30.550Z,228.00
2022-11-07T06:29:30.597Z,252.00
2022-11-07T06:30:30.695Z,248.00
2022-11-07T06:31:30.556Z,228.00
2022-11-07T06:32:30.541Z,212.00
2022-11-07T06:33:30.530Z,224.00
2022-11-07T06:34:30.563Z,256.00
2022-11-07T06:35:30.515Z,364.00
2022-11-07T06:36:30.526Z,460.00
2022-11-07T06:37:30.528Z,520.00
2022-11-07T06:38:30.507Z,588.00
2022-11-07T06:39:30.509Z,656.00
2022-11-07T06:40:30.610Z,712.00
2022-11-07T06:41:30.493Z,764.00
2022-11-07T06:42:30.473Z,840.00
2022-11-07T06:43:33.699Z,932.00
2022-11-07T06:44:31.069Z,1000.00
2022-11-07T06:45:30.476Z,1032.00
2022-11-07T06:46:30.460Z,1012.00
2022-11-07T06:47:30.456Z,944.00
2022-11-07T06:48:30.440Z,1004.00
2022-11-07T06:49:30.425Z,1052.00
2022-11-07T06:50:30.426Z,940.00
2022-11-07T06:51:30.539Z,984.00
2022-11-07T06:52:30.405Z,1100.00
2022-11-07T06:53:30.404Z,1080.00
2022-11-07T06:54:30.416Z,1008.00
2022-11-07T06:55:30.418Z,1052.00
2022-11-07T06:56:30.489Z,1288.00
2022-11-07T06:57:30.378Z,1380.00
2022-11-07T06:58:30.385Z,1500.00
2022-11-07T06:59:30.381Z,1372.00
2022-11-07T07:00:30.449Z,1212.00
2022-11-07T07:01:30.553Z,1228.00
2022-11-07T07:02:56.875Z,1212.00
2022-11-07T07:03:32.348Z,1248.00
2022-11-07T07:04:30.367Z,1496.00
2022-11-07T07:05:30.335Z,1684.00
2022-11-07T07:06:30.343Z,1712.00
2022-11-07T07:07:30.461Z,1636.00
2022-11-07T07:08:30.313Z,1568.00
2022-11-07T07:09:30.308Z,1816.00
2022-11-07T07:10:30.391Z,1904.00
2022-11-07T07:11:30.298Z,1568.00
2022-11-07T07:12:30.297Z,1520.00
2022-11-07T07:13:30.329Z,1564.00
2022-11-07T07:14:30.300Z,1568.00
2022-11-07T07:15:38.550Z,1500.00
2022-11-07T07:16:30.283Z,1260.00
2022-11-07T07:17:30.261Z,1212.00
2022-11-07T07:18:30.365Z,1284.00
2022-11-07T07:19:30.246Z,1420.00
2022-11-07T07:20:30.330Z,1664.00
2022-11-07T07:21:30.255Z,1456.00
2022-11-07T07:22:30.243Z,1288.00
2022-11-07T07:23:30.232Z,1280.00
2022-11-07T07:24:30.254Z,1088.00
2022-11-07T07:25:30.207Z,1328.00
2022-11-07T07:26:30.226Z,1448.00
2022-11-07T07:27:30.189Z,1412.00
2022-11-07T07:28:30.190Z,1332.00
2022-11-07T07:29:30.220Z,1388.00
2022-11-07T07:30:30.288Z,1284.00
2022-11-07T07:31:30.184Z,1356.00
2022-11-07T07:32:30.219Z,1268.00
2022-11-07T07:33:30.167Z,920.00
2022-11-07T07:34:30.258Z,944.00
2022-11-07T07:35:30.191Z,1032.00
2022-11-07T07:36:30.142Z,1080.00
2022-11-07T07:37:30.151Z,1320.00
2022-11-07T07:38:30.538Z,1804.00
2022-11-07T07:39:30.143Z,2144.00
2022-11-07T07:40:30.136Z,2604.00
2022-11-07T07:41:30.130Z,3608.00
2022-11-07T07:42:30.127Z,4756.00
2022-11-07T07:43:30.121Z,6916.00
2022-11-07T07:44:30.092Z,21088.00
2022-11-07T07:45:30.101Z,19744.00
2022-11-07T07:46:30.103Z,17696.00
2022-11-07T07:47:30.085Z,8184.00
2022-11-07T07:48:30.073Z,9444.00
2022-11-07T07:49:30.071Z,15044.00
2022-11-07T07:50:30.152Z,28128.00
2022-11-07T07:51:30.095Z,16224.00
2022-11-07T07:52:30.038Z,22624.00
2022-11-07T07:53:30.067Z,9952.00
2022-11-07T07:54:30.053Z,11352.00
2022-11-07T07:55:30.044Z,21920.00
2022-11-07T07:56:30.030Z,25120.00
2022-11-07T07:57:30.053Z,25312.00
2022-11-07T07:58:30.004Z,33728.00
2022-11-07T07:59:30.005Z,29024.00
2022-11-07T08:00:29.989Z,46848.00
2022-11-07T08:01:30.096Z,16832.00
2022-11-07T08:02:30.070Z,31136.00
2022-11-07T08:03:50.578Z,25024.00
2022-11-07T08:04:31.966Z,17536.00
2022-11-07T08:05:29.980Z,22176.00
2022-11-07T08:06:30.061Z,29280.00
2022-11-07T08:07:29.964Z,22304.00
2022-11-07T08:08:33.925Z,18304.00
2022-11-07T08:09:30.957Z,19648.00
2022-11-07T08:10:45.451Z,24864.00
2022-11-07T08:11:31.935Z,42624.00
2022-11-07T08:13:02.572Z,41792.00
2022-11-07T08:13:29.920Z,36352.00
2022-11-07T08:14:30.929Z,33152.00
2022-11-07T08:15:29.915Z,48448.00
2022-11-07T08:16:29.881Z,37408.00
2022-11-07T08:17:29.893Z,30272.00
2022-11-07T08:18:29.881Z,25760.00
2022-11-07T08:19:29.914Z,26016.00
2022-11-07T08:20:29.896Z,15552.00
2022-11-07T08:21:29.859Z,10880.00
2022-11-07T08:22:29.952Z,25600.00
2022-11-07T08:23:29.874Z,14476.00
2022-11-07T08:24:29.873Z,8964.00
2022-11-07T08:25:29.854Z,14224.00
2022-11-07T08:26:29.852Z,10496.00
2022-11-07T08:27:29.929Z,12056.00
2022-11-07T08:28:29.828Z,13356.00
2022-11-07T08:29:29.829Z,16736.00
2022-11-07T08:30:29.856Z,18496.00
2022-11-07T08:31:29.866Z,33504.00
2022-11-07T08:32:29.815Z,46656.00
2022-11-07T08:33:29.838Z,12928.00
2022-11-07T08:34:30.024Z,10884.00
2022-11-07T08:35:29.827Z,10156.00
2022-11-07T08:36:30.675Z,10164.00
2022-11-07T08:37:30.807Z,11552.00
2022-11-07T08:38:29.777Z,10524.00
2022-11-07T08:39:29.770Z,8692.00
2022-11-07T08:40:29.747Z,8792.00
2022-11-07T08:41:29.903Z,9456.00
2022-11-07T08:42:29.760Z,8848.00
2022-11-07T08:43:29.739Z,7892.00
2022-11-07T08:44:29.791Z,7468.00
2022-11-07T08:45:29.723Z,6140.00
2022-11-07T08:46:29.743Z,4880.00
2022-11-07T08:47:29.756Z,3908.00
2022-11-07T08:48:29.701Z,3580.00
2022-11-07T08:49:29.704Z,3912.00
2022-11-07T08:50:29.699Z,3696.00
2022-11-07T08:51:29.683Z,3764.00
2022-11-07T08:52:29.689Z,4076.00
2022-11-07T08:53:29.679Z,4824.00
2022-11-07T08:54:29.700Z,5724.00
2022-11-07T08:55:29.672Z,5536.00
2022-11-07T08:56:29.658Z,5440.00
2022-11-07T08:57:30.025Z,6204.00
2022-11-07T08:58:30.393Z,7064.00
2022-11-07T08:59:30.637Z,6164.00
2022-11-07T09:00:29.627Z,6416.00
2022-11-07T09:01:29.767Z,6716.00
2022-11-07T09:03:53.038Z,5544.00
2022-11-07T09:04:31.723Z,4528.00
2022-11-07T09:05:29.591Z,4148.00
2022-11-07T09:06:29.602Z,3976.00
2022-11-07T09:07:29.635Z,4116.00
2022-11-07T09:08:29.603Z,3964.00
2022-11-07T09:09:29.586Z,3844.00
2022-11-07T09:10:29.589Z,3432.00
2022-11-07T09:11:29.559Z,2864.00
2022-11-07T09:12:29.546Z,2720.00
2022-11-07T09:13:29.565Z,3060.00
2022-11-07T09:14:29.570Z,3416.00
2022-11-07T09:15:29.552Z,3612.00
2022-11-07T09:16:29.597Z,3684.00
2022-11-07T09:17:29.551Z,3952.00
2022-11-07T09:18:29.549Z,3848.00
2022-11-07T09:19:30.511Z,3500.00
2022-11-07T09:20:29.522Z,3856.00
2022-11-07T09:21:29.518Z,3768.00
2022-11-07T09:22:30.032Z,3764.00
2022-11-07T09:23:29.509Z,3828.00
2022-11-07T09:24:29.592Z,3876.00
2022-11-07T09:25:29.482Z,3352.00
2022-11-07T09:26:29.484Z,2896.00
2022-11-07T09:27:29.477Z,2632.00
2022-11-07T09:28:30.175Z,2292.00
2022-11-07T09:29:29.614Z,2084.00
2022-11-07T09:30:29.468Z,2128.00
2022-11-07T09:31:29.691Z,2596.00
2022-11-07T09:32:45.803Z,3264.00
2022-11-07T09:33:31.457Z,3888.00
2022-11-07T09:34:29.420Z,4088.00
2022-11-07T09:35:29.553Z,4212.00
2022-11-07T09:36:29.409Z,3796.00
2022-11-07T09:37:29.410Z,3664.00
2022-11-07T09:38:29.418Z,3696.00
2022-11-07T09:39:29.400Z,3580.00
2022-11-07T09:40:29.405Z,3336.00
2022-11-07T09:41:29.404Z,3040.00
2022-11-07T09:42:30.099Z,2852.00
2022-11-07T09:43:29.397Z,2816.00
2022-11-07T09:44:32.401Z,2832.00
2022-11-07T09:45:30.093Z,2616.00
2022-11-07T09:46:29.483Z,2324.00
2022-11-07T09:47:29.383Z,2460.00
2022-11-07T09:48:29.325Z,2652.00
2022-11-07T09:49:29.346Z,2700.00
2022-11-07T09:50:29.343Z,2404.00
2022-11-07T09:51:29.601Z,2348.00
2022-11-07T09:52:29.308Z,2156.00
2022-11-07T09:53:29.335Z,1968.00
2022-11-07T09:54:29.317Z,1788.00
2022-11-07T09:55:29.320Z,1756.00
2022-11-07T09:56:29.297Z,1640.00
2022-11-07T09:57:29.399Z,1692.00
2022-11-07T09:58:29.304Z,2080.00
2022-11-07T09:59:29.302Z,2236.00
2022-11-07T10:00:29.269Z,1736.00
2022-11-07T10:01:29.391Z,1520.00
2022-11-07T10:02:29.461Z,1560.00
2022-11-07T10:03:29.414Z,1904.00
2022-11-07T10:04:29.245Z,2012.00
2022-11-07T10:05:29.255Z,2068.00
2022-11-07T10:06:29.242Z,2232.00
2022-11-07T10:07:29.230Z,2324.00
2022-11-07T10:08:29.269Z,2388.00
2022-11-07T10:09:29.213Z,2340.00
2022-11-07T10:10:29.216Z,2352.00
2022-11-07T10:11:29.198Z,2084.00
2022-11-07T10:12:29.231Z,2044.00
2022-11-07T10:13:29.239Z,2144.00
2022-11-07T10:14:29.186Z,2036.00
2022-11-07T10:15:29.179Z,1804.00
2022-11-07T10:16:29.203Z,1732.00
2022-11-07T10:17:29.174Z,1948.00
2022-11-07T10:18:29.163Z,2172.00
2022-11-07T10:19:29.167Z,2224.00
2022-11-07T10:20:29.141Z,2420.00
2022-11-07T10:21:38.417Z,2856.00
2022-11-07T10:22:31.146Z,3240.00
2022-11-07T10:23:29.605Z,3496.00
2022-11-07T10:24:29.164Z,3276.00
2022-11-07T10:25:29.113Z,3372.00
2022-11-07T10:26:29.109Z,3672.00
2022-11-07T10:27:29.115Z,3484.00
2022-11-07T10:28:29.089Z,3468.00
2022-11-07T10:29:29.107Z,3420.00
2022-11-07T10:30:29.208Z,3272.00
2022-11-07T10:31:29.068Z,4960.00
2022-11-07T10:32:29.061Z,5948.00
2022-11-07T10:33:29.070Z,6100.00
2022-11-07T10:34:29.067Z,5928.00
2022-11-07T10:35:29.180Z,6240.00
2022-11-07T10:36:29.041Z,6116.00
2022-11-07T10:37:29.048Z,6088.00
2022-11-07T10:38:29.047Z,6572.00
2022-11-07T10:39:29.008Z,6104.00
2022-11-07T10:40:29.015Z,6984.00
2022-11-07T10:41:29.042Z,7076.00
2022-11-07T10:42:29.023Z,7680.00
2022-11-07T10:43:29.698Z,6920.00
2022-11-07T10:44:29.007Z,5220.00
2022-11-07T10:45:29.710Z,4304.00
2022-11-07T10:46:29.109Z,3976.00
2022-11-07T10:47:28.988Z,4000.00
2022-11-07T10:48:28.975Z,3776.00
2022-11-07T10:49:28.967Z,3468.00
2022-11-07T10:50:28.963Z,3240.00
2022-11-07T10:51:28.962Z,3336.00
2022-11-07T10:52:29.077Z,3240.00
2022-11-07T10:53:28.949Z,3084.00
2022-11-07T10:54:28.940Z,3540.00
2022-11-07T10:55:28.935Z,3748.00
2022-11-07T10:56:28.927Z,3328.00
2022-11-07T10:57:28.953Z,2744.00
2022-11-07T10:58:28.901Z,2356.00
2022-11-07T10:59:34.557Z,2268.00
2022-11-07T11:00:30.920Z,2324.00
2022-11-07T11:01:29.047Z,2396.00
2022-11-07T11:02:28.902Z,2348.00
2022-11-07T11:03:41.919Z,2112.00
2022-11-07T11:04:30.873Z,2192.00
2022-11-07T11:05:28.877Z,2636.00
2022-11-07T11:06:28.859Z,3252.00
2022-11-07T11:07:28.964Z,3568.00
2022-11-07T11:08:28.880Z,3616.00
2022-11-07T11:09:28.864Z,4772.00
2022-11-07T11:10:28.861Z,5300.00
2022-11-07T11:11:28.844Z,5184.00
2022-11-07T11:12:28.835Z,4772.00
2022-11-07T11:13:28.825Z,4856.00
2022-11-07T11:14:29.225Z,3920.00
2022-11-07T11:15:34.346Z,3768.00
2022-11-07T11:16:29.825Z,4548.00
2022-11-07T11:17:28.880Z,5144.00
2022-11-07T11:18:28.787Z,5124.00
2022-11-07T11:19:28.815Z,5736.00
2022-11-07T11:20:28.790Z,6704.00
2022-11-07T11:21:28.797Z,6136.00
2022-11-07T11:22:29.157Z,6036.00
2022-11-07T11:23:28.782Z,5184.00
2022-11-07T11:24:28.769Z,3860.00
2022-11-07T11:25:29.733Z,3488.00
2022-11-07T11:26:28.747Z,2948.00
2022-11-07T11:27:28.742Z,3076.00
2022-11-07T11:28:28.738Z,2856.00
2022-11-07T11:29:28.737Z,2428.00
2022-11-07T11:30:28.752Z,2348.00
2022-11-07T11:31:28.730Z,2404.00
2022-11-07T11:32:28.728Z,2288.00
2022-11-07T11:33:28.713Z,2356.00
2022-11-07T11:34:28.713Z,2676.00
2022-11-07T11:35:28.704Z,2684.00
2022-11-07T11:36:28.717Z,2604.00
2022-11-07T11:37:28.702Z,2308.00
2022-11-07T11:38:28.712Z,1992.00
2022-11-07T11:39:28.688Z,1796.00
2022-11-07T11:40:28.670Z,1740.00
2022-11-07T11:41:28.701Z,1660.00
2022-11-07T11:42:28.669Z,1592.00
2022-11-07T11:43:28.673Z,1508.00
2022-11-07T11:44:28.664Z,1520.00
2022-11-07T11:45:28.653Z,1464.00
2022-11-07T11:46:28.670Z,1388.00
2022-11-07T11:47:34.146Z,1484.00
2022-11-07T11:48:30.637Z,1568.00
2022-11-07T11:49:28.628Z,1532.00
2022-11-07T11:50:28.689Z,1532.00
2022-11-07T11:51:28.750Z,1608.00
2022-11-07T11:52:28.635Z,1724.00
2022-11-07T11:53:28.617Z,1892.00
2022-11-07T11:54:28.587Z,1908.00
2022-11-07T11:55:28.613Z,2056.00
2022-11-07T11:56:28.594Z,2180.00
2022-11-07T11:57:28.588Z,2348.00
2022-11-07T11:58:28.710Z,2684.00
2022-11-07T11:59:28.579Z,3152.00
2022-11-07T12:00:28.558Z,3180.00
2022-11-07T12:01:28.653Z,2616.00
2022-11-07T12:02:28.643Z,2600.00
2022-11-07T12:03:29.561Z,3416.00
2022-11-07T12:04:28.568Z,3824.00
2022-11-07T12:05:28.540Z,3496.00
2022-11-07T12:06:28.544Z,3392.00
2022-11-07T12:07:28.528Z,3524.00
2022-11-07T12:08:28.518Z,3516.00
2022-11-07T12:09:28.528Z,4000.00
2022-11-07T12:10:28.545Z,3996.00
2022-11-07T12:11:28.509Z,3668.00
2022-11-07T12:12:28.516Z,3736.00
2022-11-07T12:13:28.560Z,4644.00
2022-11-07T12:14:28.497Z,4896.00
2022-11-07T12:15:28.478Z,4132.00
2022-11-07T12:16:28.484Z,3836.00
2022-11-07T12:17:28.478Z,3384.00
2022-11-07T12:18:28.483Z,3220.00
2022-11-07T12:19:28.477Z,2628.00
2022-11-07T12:20:28.460Z,2512.00
2022-11-07T12:21:28.458Z,3188.00
2022-11-07T12:22:28.438Z,3548.00
2022-11-07T12:23:28.433Z,3560.00
2022-11-07T12:24:28.476Z,4588.00
2022-11-07T12:25:28.466Z,4504.00
2022-11-07T12:26:28.472Z,7788.00
2022-11-07T12:27:28.398Z,6856.00
2022-11-07T12:28:28.407Z,6904.00
2022-11-07T12:29:28.419Z,6404.00
2022-11-07T12:30:28.399Z,6500.00
2022-11-07T12:31:28.374Z,6924.00
2022-11-07T12:32:28.376Z,8976.00
2022-11-07T12:33:28.392Z,8012.00
2022-11-07T12:34:28.394Z,6944.00
2022-11-07T12:35:28.360Z,5384.00
2022-11-07T12:36:28.363Z,5152.00
2022-11-07T12:37:28.356Z,5424.00
2022-11-07T12:38:28.363Z,6452.00
2022-11-07T12:39:28.369Z,6468.00
2022-11-07T12:40:28.344Z,5404.00